createdAt,value
2016-02-16T00:00:27.277Z,61
2016-02-16T00:01:26.452Z,61
2016-02-16T00:02:25.455Z,61
2016-02-16T00:03:24.364Z,61
2016-02-16T00:04:23.398Z,61
2016-02-16T00:05:22.447Z,61
2016-02-16T00:06:21.481Z,61
2016-02-16T00:07:20.622Z,61
2016-02-16T00:08:19.593Z,61
2016-02-16T00:09:20.611Z,61
2016-02-16T00:10:19.630Z,61
2016-02-16T00:11:18.664Z,61
2016-02-16T00:12:17.807Z,61
2016-02-16T00:13:16.732Z,61
2016-02-16T00:14:15.765Z,61
2016-02-16T00:15:14.815Z,61
2016-02-16T00:16:13.834Z,61
2016-02-16T00:17:12.868Z,61
2016-02-16T00:18:12.089Z,61
2016-02-16T00:19:12.982Z,61
2016-02-16T00:21:11.035Z,61
2016-02-16T00:22:10.178Z,62
2016-02-16T00:23:09.353Z,62
2016-02-16T00:24:08.637Z,62
2016-02-16T00:25:07.936Z,62
2016-02-16T00:26:07.220Z,62
2016-02-16T00:27:06.629Z,62
2016-02-16T00:28:05.850Z,62
2016-02-16T00:29:06.853Z,62
2016-02-16T00:30:06.137Z,62
2016-02-16T00:31:05.436Z,62
2016-02-16T00:32:04.720Z,62
2016-02-16T00:33:04.019Z,62
2016-02-16T00:34:03.289Z,62
2016-02-16T00:35:02.588Z,62
2016-02-16T00:36:01.872Z,62
2016-02-16T00:37:01.171Z,62
2016-02-16T00:38:00.518Z,62
2016-02-16T00:39:01.661Z,62
2016-02-16T00:40:00.805Z,62
2016-02-16T00:41:00.213Z,62
2016-02-16T00:41:59.372Z,62
2016-02-16T00:42:58.657Z,62
2016-02-16T00:43:57.972Z,62
2016-02-16T00:44:57.240Z,62
2016-02-16T00:45:56.540Z,62
2016-02-16T00:46:55.917Z,62
2016-02-16T00:47:55.154Z,62
2016-02-16T00:48:56.157Z,62
2016-02-16T00:49:55.440Z,62
2016-02-16T00:50:54.740Z,62
2016-02-16T00:51:54.009Z,62
2016-02-16T00:52:53.417Z,62
2016-02-16T00:53:52.592Z,62
2016-02-16T00:54:51.876Z,62
2016-02-16T00:55:51.316Z,62
2016-02-16T00:56:50.570Z,62
2016-02-16T00:57:49.790Z,62
2016-02-16T00:58:50.808Z,62
2016-02-16T00:59:50.108Z,62
2016-02-16T01:00:49.423Z,62
2016-02-16T01:01:48.786Z,62
2016-02-16T01:02:48.023Z,62
2016-02-16T01:03:47.259Z,62
2016-02-16T01:04:46.778Z,62
2016-02-16T01:05:45.827Z,62
2016-02-16T01:06:45.111Z,62
2016-02-16T01:07:44.567Z,62
2016-02-16T01:08:45.477Z,62
2016-02-16T01:09:44.885Z,62
2016-02-16T01:10:44.027Z,61
2016-02-16T01:11:43.327Z,61
2016-02-16T01:12:42.627Z,61
2016-02-16T01:13:42.021Z,61
2016-02-16T01:14:41.211Z,61
2016-02-16T01:15:40.479Z,61
2016-02-16T01:16:39.888Z,61
2016-02-16T01:17:39.156Z,61
2016-02-16T01:18:40.128Z,61
2016-02-16T01:19:39.413Z,61
2016-02-16T01:20:38.696Z,61
2016-02-16T01:21:38.151Z,61
2016-02-16T01:22:37.389Z,61
2016-02-16T01:23:36.578Z,61
2016-02-16T01:24:35.848Z,61
2016-02-16T01:25:35.132Z,61
2016-02-16T01:26:34.446Z,61
2016-02-16T01:27:33.793Z,61
2016-02-16T01:28:34.795Z,61
2016-02-16T01:29:34.079Z,61
2016-02-16T01:30:33.364Z,61
2016-02-16T01:31:32.757Z,61
2016-02-16T01:32:31.962Z,61
2016-02-16T01:33:31.247Z,61
2016-02-16T01:34:30.671Z,61
2016-02-16T01:35:29.908Z,61
2016-02-16T01:36:29.082Z,61
2016-02-16T01:37:28.445Z,61
2016-02-16T01:38:29.432Z,61
2016-02-16T01:39:28.731Z,61
2016-02-16T01:40:28.062Z,61
2016-02-16T01:41:27.299Z,61
2016-02-16T01:42:26.614Z,61
2016-02-16T01:43:26.008Z,61
2016-02-16T01:44:25.164Z,61
2016-02-16T01:45:24.464Z,61
2016-02-16T01:46:23.888Z,61
2016-02-16T01:47:23.140Z,61
2016-02-16T01:48:24.097Z,61
2016-02-16T01:49:23.427Z,61
2016-02-16T01:50:22.680Z,61
2016-02-16T01:51:21.980Z,61
2016-02-16T01:52:21.248Z,61
2016-02-16T01:53:20.548Z,61
2016-02-16T01:54:19.988Z,61
2016-02-16T01:55:19.115Z,61
2016-02-16T01:56:18.415Z,61
2016-02-16T01:57:17.746Z,61
2016-02-16T01:58:18.764Z,61
2016-02-16T01:59:18.048Z,61
2016-02-16T02:01:16.647Z,61
2016-02-16T02:02:15.915Z,61
2016-02-16T02:03:15.231Z,61
2016-02-16T02:04:14.499Z,61
2016-02-16T02:05:13.815Z,61
2016-02-16T02:06:13.193Z,61
2016-02-16T02:07:12.555Z,61
2016-02-16T02:08:13.464Z,61
2016-02-16T02:09:12.842Z,61
2016-02-16T02:10:12.031Z,61
2016-02-16T02:11:11.301Z,61
2016-02-16T02:12:10.709Z,61
2016-02-16T02:13:09.993Z,61
2016-02-16T02:14:09.167Z,61
2016-02-16T02:15:08.451Z,61
2016-02-16T02:16:07.751Z,61
2016-02-16T02:17:07.097Z,61
2016-02-16T02:18:08.209Z,61
2016-02-16T02:19:07.384Z,61
2016-02-16T02:20:06.699Z,61
2016-02-16T02:21:06.124Z,61
2016-02-16T02:22:05.252Z,61
2016-02-16T02:23:04.691Z,61
2016-02-16T02:24:03.836Z,61
2016-02-16T02:25:03.135Z,61
2016-02-16T02:26:02.418Z,61
2016-02-16T02:27:01.765Z,61
2016-02-16T02:28:02.893Z,61
2016-02-16T02:29:02.068Z,61
2016-02-16T02:30:01.367Z,61
2016-02-16T02:31:00.635Z,61
2016-02-16T02:32:00.043Z,61
2016-02-16T02:32:59.218Z,61
2016-02-16T02:33:58.519Z,61
2016-02-16T02:34:57.802Z,61
2016-02-16T02:35:57.102Z,61
2016-02-16T02:36:56.448Z,61
2016-02-16T02:37:57.435Z,61
2016-02-16T02:38:56.719Z,61
2016-02-16T02:39:56.144Z,61
2016-02-16T02:40:55.412Z,61
2016-02-16T02:41:54.618Z,61
2016-02-16T02:42:53.901Z,61
2016-02-16T02:43:53.170Z,61
2016-02-16T02:44:52.594Z,61
2016-02-16T02:45:51.753Z,61
2016-02-16T02:46:51.101Z,61
2016-02-16T02:47:52.103Z,61
2016-02-16T02:48:51.417Z,61
2016-02-16T02:49:50.717Z,61
2016-02-16T02:50:50.094Z,61
2016-02-16T02:51:49.301Z,61
2016-02-16T02:52:48.554Z,61
2016-02-16T02:53:47.838Z,61
2016-02-16T02:54:47.137Z,61
2016-02-16T02:55:46.546Z,61
2016-02-16T02:56:45.799Z,61
2016-02-16T02:57:46.817Z,61
2016-02-16T02:58:46.102Z,61
2016-02-16T02:59:45.354Z,61
2016-02-16T03:00:44.669Z,61
2016-02-16T03:01:43.937Z,61
2016-02-16T03:02:43.346Z,61
2016-02-16T03:03:42.521Z,61
2016-02-16T03:04:41.842Z,61
2016-02-16T03:05:41.204Z,61
2016-02-16T03:06:40.441Z,61
2016-02-16T03:07:41.474Z,61
2016-02-16T03:08:40.728Z,61
2016-02-16T03:09:39.762Z,61
2016-02-16T03:10:39.108Z,61
2016-02-16T03:11:38.345Z,61
2016-02-16T03:12:37.754Z,61
2016-02-16T03:13:36.710Z,61
2016-02-16T03:14:36.104Z,61
2016-02-16T03:15:35.387Z,61
2016-02-16T03:16:34.734Z,61
2016-02-16T03:17:35.626Z,61
2016-02-16T03:18:34.911Z,61
2016-02-16T03:19:34.195Z,61
2016-02-16T03:20:33.260Z,61
2016-02-16T03:21:32.263Z,61
2016-02-16T03:22:31.312Z,61
2016-02-16T03:23:30.359Z,61
2016-02-16T03:24:29.377Z,61
2016-02-16T03:25:28.536Z,61
2016-02-16T03:26:27.539Z,61
2016-02-16T03:27:28.511Z,61
2016-02-16T03:28:27.561Z,61
2016-02-16T03:29:26.578Z,61
2016-02-16T03:30:25.736Z,61
2016-02-16T03:31:24.661Z,61
2016-02-16T03:32:23.696Z,61
2016-02-16T03:33:22.730Z,61
2016-02-16T03:34:21.764Z,61
2016-02-16T03:35:20.907Z,61
2016-02-16T03:36:19.925Z,61
2016-02-16T03:37:20.896Z,61
2016-02-16T03:38:19.947Z,61
2016-02-16T03:39:19.136Z,61
2016-02-16T03:40:18.014Z,61
2016-02-16T03:41:17.063Z,61
2016-02-16T03:42:16.082Z,61
2016-02-16T03:43:15.115Z,61
2016-02-16T03:44:14.181Z,61
2016-02-16T03:45:13.309Z,61
2016-02-16T03:46:12.280Z,61
2016-02-16T03:47:13.298Z,61
2016-02-16T03:48:12.332Z,61
2016-02-16T03:49:11.506Z,61
2016-02-16T03:50:10.510Z,61
2016-02-16T03:51:09.482Z,61
2016-02-16T03:52:08.468Z,61
2016-02-16T03:53:07.642Z,61
2016-02-16T03:54:06.676Z,61
2016-02-16T03:55:05.601Z,61
2016-02-16T03:56:04.682Z,61
2016-02-16T03:57:05.810Z,61
2016-02-16T03:58:04.766Z,61
2016-02-16T03:59:03.721Z,61
2016-02-16T04:00:02.802Z,61
2016-02-16T04:01:01.836Z,61
2016-02-16T04:02:00.870Z,61
2016-02-16T04:02:59.936Z,61
2016-02-16T04:03:58.985Z,61
2016-02-16T04:04:57.988Z,61
2016-02-16T04:05:57.083Z,61
2016-02-16T04:06:58.086Z,61
2016-02-16T04:07:57.152Z,61
2016-02-16T04:08:56.185Z,61
2016-02-16T04:09:55.204Z,61
2016-02-16T04:10:54.238Z,61
2016-02-16T04:11:53.288Z,61
2016-02-16T04:12:52.400Z,61
2016-02-16T04:13:51.340Z,61
2016-02-16T04:14:50.420Z,61
2016-02-16T04:15:49.471Z,61
2016-02-16T04:16:50.473Z,61
2016-02-16T04:17:49.523Z,61
2016-02-16T04:18:48.698Z,61
2016-02-16T04:19:47.731Z,61
2016-02-16T04:20:46.749Z,61
2016-02-16T04:21:45.784Z,61
2016-02-16T04:22:44.724Z,61
2016-02-16T04:23:43.726Z,61
2016-02-16T04:24:42.791Z,61
2016-02-16T04:25:41.857Z,61
2016-02-16T04:26:42.859Z,61
2016-02-16T04:27:42.034Z,61
2016-02-16T04:28:40.990Z,61
2016-02-16T04:29:39.977Z,61
2016-02-16T04:30:39.008Z,61
2016-02-16T04:31:38.077Z,61
2016-02-16T04:32:37.066Z,61
2016-02-16T04:34:35.107Z,61
2016-02-16T04:35:34.223Z,61
2016-02-16T04:36:35.190Z,61
2016-02-16T04:37:34.219Z,61
2016-02-16T04:38:33.298Z,61
2016-02-16T04:39:32.279Z,61
2016-02-16T04:40:31.308Z,61
2016-02-16T04:41:30.463Z,61
2016-02-16T04:42:29.371Z,61
2016-02-16T04:43:28.419Z,61
2016-02-16T04:44:27.451Z,61
2016-02-16T04:45:26.545Z,61
2016-02-16T04:46:27.532Z,61
2016-02-16T04:47:26.580Z,61
2016-02-16T04:48:25.629Z,61
2016-02-16T04:49:24.787Z,61
2016-02-16T04:50:23.695Z,61
2016-02-16T04:51:22.744Z,61
2016-02-16T04:52:21.763Z,61
2016-02-16T04:53:20.797Z,61
2016-02-16T04:54:19.830Z,61
2016-02-16T04:55:18.926Z,61
2016-02-16T04:56:20.054Z,61
2016-02-16T04:57:19.010Z,61
2016-02-16T04:58:18.121Z,61
2016-02-16T04:59:17.171Z,61
2016-02-16T05:00:16.096Z,61
2016-02-16T05:01:15.255Z,60
2016-02-16T05:02:13.914Z,61
2016-02-16T05:03:12.948Z,61
2016-02-16T05:04:11.998Z,61
2016-02-16T05:05:11.095Z,61
2016-02-16T05:06:12.129Z,61
2016-02-16T05:07:11.131Z,61
2016-02-16T05:08:10.164Z,61
2016-02-16T05:09:09.199Z,61
2016-02-16T05:10:08.279Z,61
2016-02-16T05:11:07.282Z,61
2016-02-16T05:12:06.316Z,61
2016-02-16T05:13:05.381Z,61
2016-02-16T05:14:04.509Z,61
2016-02-16T05:15:03.528Z,61
2016-02-16T05:16:04.483Z,61
2016-02-16T05:17:03.548Z,61
2016-02-16T05:18:02.583Z,61
2016-02-16T05:19:01.632Z,61
2016-02-16T05:20:00.635Z,61
2016-02-16T05:20:59.683Z,61
2016-02-16T05:21:58.702Z,61
2016-02-16T05:22:57.752Z,61
2016-02-16T05:23:56.786Z,61
2016-02-16T05:24:55.883Z,61
2016-02-16T05:25:56.901Z,61
2016-02-16T05:26:55.919Z,60
2016-02-16T05:27:54.735Z,60
2016-02-16T05:28:53.518Z,61
2016-02-16T05:29:52.521Z,61
2016-02-16T05:30:51.571Z,61
2016-02-16T05:31:50.605Z,61
2016-02-16T05:32:49.763Z,61
2016-02-16T05:33:48.812Z,61
2016-02-16T05:34:47.784Z,61
2016-02-16T05:35:48.787Z,61
2016-02-16T05:36:47.852Z,61
2016-02-16T05:37:47.012Z,61
2016-02-16T05:38:45.920Z,61
2016-02-16T05:39:44.969Z,61
2016-02-16T05:40:43.973Z,60
2016-02-16T05:41:42.756Z,61
2016-02-16T05:42:41.789Z,61
2016-02-16T05:43:40.839Z,60
2016-02-16T05:44:39.686Z,60
2016-02-16T05:45:40.720Z,60
2016-02-16T05:46:39.583Z,60
2016-02-16T05:47:38.226Z,61
2016-02-16T05:48:37.148Z,60
2016-02-16T05:49:35.931Z,60
2016-02-16T05:50:34.574Z,61
2016-02-16T05:51:33.374Z,60
2016-02-16T05:52:32.174Z,60
2016-02-16T05:53:30.958Z,60
2016-02-16T05:54:29.897Z,60
2016-02-16T05:55:30.807Z,60
2016-02-16T05:56:29.591Z,60
2016-02-16T05:57:28.374Z,60
2016-02-16T05:58:27.128Z,61
2016-02-16T05:59:26.271Z,61
2016-02-16T06:00:24.960Z,61
2016-02-16T06:01:23.730Z,61
2016-02-16T06:02:22.529Z,60
2016-02-16T06:03:21.407Z,61
2016-02-16T06:04:20.159Z,60
2016-02-16T06:05:21.163Z,60
2016-02-16T06:06:19.931Z,61
2016-02-16T06:07:18.855Z,60
2016-02-16T06:08:17.108Z,60
2016-02-16T06:09:16.283Z,60
2016-02-16T06:10:15.066Z,60
2016-02-16T06:11:13.882Z,60
2016-02-16T06:12:12.682Z,60
2016-02-16T06:13:11.449Z,60
2016-02-16T06:14:10.280Z,60
2016-02-16T06:15:11.283Z,60
2016-02-16T06:16:10.052Z,60
2016-02-16T06:17:08.960Z,61
2016-02-16T06:18:07.729Z,61
2016-02-16T06:19:06.419Z,60
2016-02-16T06:20:05.203Z,60
2016-02-16T06:21:04.003Z,61
2016-02-16T06:22:02.895Z,61
2016-02-16T06:23:01.649Z,61
2016-02-16T06:24:00.401Z,61
2016-02-16T06:25:01.529Z,61
2016-02-16T06:26:00.297Z,61
2016-02-16T06:26:58.972Z,61
2016-02-16T06:27:57.772Z,61
2016-02-16T06:28:56.524Z,61
2016-02-16T06:29:55.308Z,61
2016-02-16T06:30:54.217Z,61
2016-02-16T06:31:52.875Z,61
2016-02-16T06:32:51.661Z,61
2016-02-16T06:33:50.506Z,61
2016-02-16T06:34:51.525Z,61
2016-02-16T06:35:50.325Z,61
2016-02-16T06:36:49.093Z,61
2016-02-16T06:37:47.876Z,61
2016-02-16T06:38:46.661Z,60
2016-02-16T06:39:45.429Z,61
2016-02-16T06:40:44.244Z,61
2016-02-16T06:41:42.996Z,61
2016-02-16T06:42:41.812Z,61
2016-02-16T06:43:40.627Z,61
2016-02-16T06:44:41.645Z,61
2016-02-16T06:45:40.460Z,61
2016-02-16T06:46:39.244Z,61
2016-02-16T06:47:37.994Z,61
2016-02-16T06:48:36.778Z,61
2016-02-16T06:49:35.688Z,61
2016-02-16T06:50:34.346Z,61
2016-02-16T06:51:33.162Z,61
2016-02-16T06:52:31.914Z,61
2016-02-16T06:53:30.792Z,61
2016-02-16T06:54:31.763Z,61
2016-02-16T06:55:30.548Z,61
2016-02-16T06:56:29.332Z,61
2016-02-16T06:57:28.115Z,61
2016-02-16T06:58:26.931Z,61
2016-02-16T06:59:25.698Z,61
2016-02-16T07:00:24.529Z,61
2016-02-16T07:01:23.782Z,63
2016-02-16T07:02:24.081Z,65
2016-02-16T07:03:25.225Z,66
2016-02-16T07:04:26.197Z,68
2016-02-16T07:05:24.730Z,69
2016-02-16T07:10:25.275Z,72
2016-02-16T07:11:26.325Z,72
2016-02-16T07:13:29.299Z,74
2016-02-16T07:14:30.302Z,74
2016-02-16T07:15:28.569Z,75
2016-02-16T07:16:27.322Z,75
2016-02-16T07:17:26.341Z,76
2016-02-16T07:18:25.640Z,76
2016-02-16T07:19:25.190Z,77
2016-02-16T07:20:24.990Z,77
2016-02-16T07:21:25.179Z,78
2016-02-16T07:22:25.385Z,78
2016-02-16T07:23:25.981Z,78
2016-02-16T07:24:27.016Z,78
2016-02-16T07:25:27.909Z,78
2016-02-16T07:26:28.646Z,79
2016-02-16T07:27:29.681Z,79
2016-02-16T07:28:30.793Z,79
2016-02-16T07:29:32.076Z,80
2016-02-16T07:30:33.673Z,80
2016-02-16T07:31:35.207Z,80
2016-02-16T07:32:36.772Z,80
2016-02-16T07:33:34.618Z,80
2016-02-16T07:34:35.620Z,81
2016-02-16T07:35:33.639Z,81
2016-02-16T07:36:31.658Z,81
2016-02-16T07:37:29.675Z,81
2016-02-16T07:38:27.960Z,81
2016-02-16T07:39:26.244Z,81
2016-02-16T07:40:24.778Z,81
2016-02-16T07:41:23.296Z,81
2016-02-16T07:42:21.861Z,81
2016-02-16T07:43:20.426Z,81
2016-02-16T07:44:21.539Z,82
2016-02-16T07:45:20.369Z,82
2016-02-16T07:46:18.997Z,82
2016-02-16T07:47:18.062Z,82
2016-02-16T07:48:17.174Z,82
2016-02-16T07:49:16.115Z,82
2016-02-16T07:50:15.149Z,82
2016-02-16T07:51:14.245Z,82
2016-02-16T07:52:13.216Z,83
2016-02-16T07:53:12.579Z,83
2016-02-16T07:54:13.581Z,83
2016-02-16T07:55:12.896Z,83
2016-02-16T07:56:12.415Z,83
2016-02-16T07:57:12.104Z,83
2016-02-16T07:58:11.545Z,83
2016-02-16T07:59:11.079Z,83
2016-02-16T08:00:10.612Z,83
2016-02-16T08:01:10.147Z,83
2016-02-16T08:02:09.931Z,83
2016-02-16T08:03:09.902Z,83
2016-02-16T08:04:10.843Z,83
2016-02-16T08:05:10.611Z,84
2016-02-16T08:06:10.661Z,84
2016-02-16T08:07:10.709Z,84
2016-02-16T08:08:10.791Z,84
2016-02-16T08:09:10.808Z,84
2016-02-16T08:10:10.859Z,84
2016-02-16T08:11:10.924Z,84
2016-02-16T08:12:10.958Z,84
2016-02-16T08:13:11.320Z,84
2016-02-16T08:14:12.323Z,85
2016-02-16T08:15:12.919Z,85
2016-02-16T08:16:13.437Z,85
2016-02-16T08:17:14.002Z,85
2016-02-16T08:18:14.552Z,85
2016-02-16T08:19:15.117Z,85
2016-02-16T08:20:15.666Z,85
2016-02-16T08:21:16.232Z,85
2016-02-16T08:22:16.781Z,85
2016-02-16T08:23:17.409Z,85
2016-02-16T08:24:18.412Z,85
2016-02-16T08:25:19.212Z,85
2016-02-16T08:26:20.026Z,85
2016-02-16T08:27:20.842Z,85
2016-02-16T08:28:21.657Z,85
2016-02-16T08:29:22.457Z,85
2016-02-16T08:30:23.271Z,85
2016-02-16T08:31:24.103Z,85
2016-02-16T08:32:24.886Z,85
2016-02-16T08:33:25.748Z,85
2016-02-16T08:34:26.751Z,85
2016-02-16T08:35:27.566Z,85
2016-02-16T08:36:28.756Z,85
2016-02-16T08:37:29.697Z,85
2016-02-16T08:38:30.762Z,85
2016-02-16T08:39:31.842Z,85
2016-02-16T08:40:32.892Z,85
2016-02-16T08:41:33.958Z,85
2016-02-16T08:42:35.022Z,85
2016-02-16T08:43:36.088Z,85
2016-02-16T08:44:37.138Z,85
2016-02-16T08:45:38.218Z,85
2016-02-16T08:46:39.300Z,85
2016-02-16T08:47:40.380Z,85
2016-02-16T08:48:41.399Z,85
2016-02-16T08:49:42.480Z,85
2016-02-16T08:50:43.544Z,86
2016-02-16T08:51:44.906Z,86
2016-02-16T08:52:46.174Z,86
2016-02-16T08:53:47.537Z,86
2016-02-16T08:54:48.557Z,86
2016-02-16T08:55:49.873Z,86
2016-02-16T08:56:51.251Z,86
2016-02-16T08:57:52.503Z,86
2016-02-16T08:58:53.819Z,86
2016-02-16T08:59:55.212Z,86
2016-02-16T09:00:56.465Z,86
2016-02-16T09:01:58.029Z,86
2016-02-16T09:02:59.392Z,86
2016-02-16T09:04:00.972Z,86
2016-02-16T09:05:01.990Z,86
2016-02-16T09:06:03.587Z,86
2016-02-16T09:07:05.121Z,86
2016-02-16T09:08:06.717Z,84
2016-02-16T09:09:06.751Z,80
2016-02-16T09:10:04.504Z,77
2016-02-16T09:11:04.570Z,75
2016-02-16T09:12:03.353Z,73
2016-02-16T09:13:01.106Z,72
2016-02-16T09:14:02.500Z,71
2016-02-16T09:15:03.517Z,70
2016-02-16T09:16:03.552Z,70
2016-02-16T09:17:03.366Z,69
2016-02-16T09:18:02.635Z,68
2016-02-16T09:19:01.669Z,68
2016-02-16T09:20:00.452Z,68
2016-02-16T09:20:59.238Z,68
2016-02-16T09:21:57.786Z,67
2016-02-16T09:22:56.055Z,67
2016-02-16T09:23:54.167Z,67
2016-02-16T09:24:55.154Z,66
2016-02-16T09:25:52.922Z,66
2016-02-16T09:26:50.722Z,66
2016-02-16T09:27:52.256Z,66
2016-02-16T09:28:53.821Z,65
2016-02-16T09:29:55.168Z,65
2016-02-16T09:30:56.514Z,65
2016-02-16T09:31:57.517Z,65
2016-02-16T09:32:58.613Z,64
2016-02-16T09:33:59.460Z,64
2016-02-16T09:35:00.462Z,64
2016-02-16T09:36:01.278Z,64
2016-02-16T09:37:02.077Z,64
2016-02-16T09:38:02.659Z,64
2016-02-16T09:39:03.192Z,64
2016-02-16T09:40:03.757Z,63
2016-02-16T09:41:04.056Z,63
2016-02-16T09:42:04.356Z,63
2016-02-16T09:43:04.687Z,63
2016-02-16T09:44:05.159Z,63
2016-02-16T09:45:06.036Z,63
2016-02-16T09:46:06.086Z,63
2016-02-16T09:47:06.135Z,63
2016-02-16T09:48:06.200Z,63
2016-02-16T09:49:06.233Z,63
2016-02-16T09:50:06.284Z,62
2016-02-16T09:51:06.115Z,62
2016-02-16T09:52:05.883Z,62
2016-02-16T09:53:05.714Z,62
2016-02-16T09:54:05.544Z,62
2016-02-16T09:55:06.579Z,62
2016-02-16T09:56:06.346Z,62
2016-02-16T09:57:06.162Z,62
2016-02-16T09:58:05.946Z,62
2016-02-16T09:59:05.730Z,62
2016-02-16T10:00:05.561Z,62
2016-02-16T10:01:05.095Z,62
2016-02-16T10:02:04.801Z,62
2016-02-16T10:03:04.193Z,62
2016-02-16T10:04:03.790Z,62
2016-02-16T10:05:04.809Z,62
2016-02-16T10:06:04.093Z,61
2016-02-16T10:07:03.142Z,61
2016-02-16T10:08:02.192Z,61
2016-02-16T10:09:01.319Z,61
2016-02-16T10:10:00.228Z,61
2016-02-16T10:10:59.028Z,61
2016-02-16T10:11:57.795Z,61
2016-02-16T10:12:56.862Z,61
2016-02-16T10:13:55.927Z,61
2016-02-16T10:14:56.945Z,61
2016-02-16T10:15:55.995Z,61
2016-02-16T10:16:55.028Z,61
2016-02-16T10:17:54.091Z,61
2016-02-16T10:18:53.109Z,61
2016-02-16T10:19:52.253Z,61
2016-02-16T10:20:51.162Z,61
2016-02-16T10:21:49.961Z,61
2016-02-16T10:22:48.761Z,61
2016-02-16T10:23:47.575Z,60
2016-02-16T10:24:48.578Z,60
2016-02-16T10:25:47.112Z,61
2016-02-16T10:26:45.896Z,61
2016-02-16T10:27:44.680Z,60
2016-02-16T10:28:43.214Z,60
2016-02-16T10:29:41.749Z,60
2016-02-16T10:30:40.282Z,60
2016-02-16T10:31:38.551Z,60
2016-02-16T10:32:36.834Z,60
2016-02-16T10:34:36.229Z,60
2016-02-16T10:35:34.577Z,60
2016-02-16T10:36:32.986Z,60
2016-02-16T10:37:31.520Z,60
2016-02-16T10:38:30.037Z,61
2016-02-16T10:39:28.947Z,61
2016-02-16T10:40:27.731Z,61
2016-02-16T10:41:26.436Z,61
2016-02-16T10:42:25.298Z,61
2016-02-16T10:43:24.020Z,61
2016-02-16T10:44:25.070Z,60
2016-02-16T10:45:23.557Z,60
2016-02-16T10:46:22.091Z,60
2016-02-16T10:47:20.624Z,60
2016-02-16T10:48:19.284Z,60
2016-02-16T10:49:17.693Z,60
2016-02-16T10:50:16.336Z,60
2016-02-16T10:51:14.495Z,60
2016-02-16T10:52:12.778Z,60
2016-02-16T10:53:11.110Z,60
2016-02-16T10:54:12.112Z,60
2016-02-16T10:55:10.427Z,60
2016-02-16T10:56:08.790Z,60
2016-02-16T10:57:06.933Z,59
2016-02-16T10:58:04.967Z,59
2016-02-16T10:59:03.001Z,59
2016-02-16T11:00:01.019Z,60
2016-02-16T11:00:59.302Z,60
2016-02-16T11:01:57.572Z,60
2016-02-16T11:02:55.931Z,59
2016-02-16T11:03:56.918Z,59
2016-02-16T11:04:54.952Z,59
2016-02-16T11:05:52.829Z,59
2016-02-16T11:06:50.473Z,59
2016-02-16T11:07:48.287Z,59
2016-02-16T11:08:46.010Z,59
2016-02-16T11:09:43.809Z,59
2016-02-16T11:10:41.577Z,59
2016-02-16T11:12:37.145Z,59
2016-02-16T11:13:38.179Z,59
2016-02-16T11:14:35.931Z,59
2016-02-16T11:15:33.840Z,59
2016-02-16T11:16:31.874Z,60
2016-02-16T11:17:30.393Z,60
2016-02-16T11:18:28.787Z,60
2016-02-16T11:19:27.320Z,60
2016-02-16T11:20:25.854Z,61
2016-02-16T11:21:24.653Z,60
2016-02-16T11:22:23.219Z,61
2016-02-16T11:23:24.237Z,61
2016-02-16T11:24:23.022Z,61
2016-02-16T11:25:21.805Z,61
2016-02-16T11:26:20.589Z,61
2016-02-16T11:27:19.483Z,61
2016-02-16T11:28:18.162Z,61
2016-02-16T11:29:17.102Z,61
2016-02-16T11:30:15.729Z,61
2016-02-16T11:31:14.623Z,61
2016-02-16T11:32:13.344Z,61
2016-02-16T11:33:14.471Z,61
2016-02-16T11:34:13.256Z,61
2016-02-16T11:35:12.040Z,61
2016-02-16T11:36:11.073Z,61
2016-02-16T11:37:09.748Z,61
2016-02-16T11:38:08.907Z,61
2016-02-16T11:39:07.832Z,61
2016-02-16T11:40:06.851Z,61
2016-02-16T11:41:05.900Z,61
2016-02-16T11:42:04.981Z,61
2016-02-16T11:43:06.108Z,61
2016-02-16T11:44:05.048Z,61
2016-02-16T11:45:04.067Z,61
2016-02-16T11:46:03.101Z,61
2016-02-16T11:47:02.181Z,61
2016-02-16T11:48:01.184Z,61
2016-02-16T11:49:00.249Z,61
2016-02-16T11:49:59.374Z,61
2016-02-16T11:50:58.408Z,61
2016-02-16T11:51:57.395Z,61
2016-02-16T11:52:58.383Z,61
2016-02-16T11:53:57.557Z,61
2016-02-16T11:54:56.466Z,61
2016-02-16T11:55:55.516Z,61
2016-02-16T11:56:54.565Z,61
2016-02-16T11:57:53.568Z,61
2016-02-16T11:58:52.664Z,61
2016-02-16T11:59:51.683Z,61
2016-02-16T12:00:50.810Z,61
2016-02-16T12:01:49.891Z,61
2016-02-16T12:02:50.909Z,61
2016-02-16T12:03:49.835Z,61
2016-02-16T12:04:48.993Z,61
2016-02-16T12:05:47.907Z,61
2016-02-16T12:06:46.941Z,61
2016-02-16T12:07:45.976Z,61
2016-02-16T12:08:45.009Z,61
2016-02-16T12:09:44.059Z,61
2016-02-16T12:10:43.093Z,61
2016-02-16T12:11:42.174Z,61
2016-02-16T12:12:43.223Z,61
2016-02-16T12:13:42.242Z,61
2016-02-16T12:14:41.385Z,61
2016-02-16T12:15:40.294Z,61
2016-02-16T12:16:39.343Z,61
2016-02-16T12:17:38.378Z,61
2016-02-16T12:18:37.427Z,61
2016-02-16T12:19:36.461Z,61
2016-02-16T12:20:35.495Z,61
2016-02-16T12:21:34.591Z,61
2016-02-16T12:22:35.594Z,61
2016-02-16T12:23:34.754Z,61
2016-02-16T12:24:33.678Z,61
2016-02-16T12:25:32.712Z,61
2016-02-16T12:26:31.495Z,61
2016-02-16T12:27:30.279Z,61
2016-02-16T12:28:29.173Z,61
2016-02-16T12:29:27.956Z,61
2016-02-16T12:30:26.631Z,61
2016-02-16T12:31:25.478Z,61
2016-02-16T12:32:26.496Z,61
2016-02-16T12:33:25.389Z,61
2016-02-16T12:34:24.049Z,61
2016-02-16T12:35:22.847Z,61
2016-02-16T12:36:21.742Z,61
2016-02-16T12:37:20.541Z,61
2016-02-16T12:38:19.184Z,61
2016-02-16T12:39:18.093Z,61
2016-02-16T12:40:16.876Z,61
2016-02-16T12:41:15.613Z,61
2016-02-16T12:42:16.602Z,61
2016-02-16T12:43:15.385Z,61
2016-02-16T12:44:14.309Z,61
2016-02-16T12:45:12.954Z,61
2016-02-16T12:46:11.752Z,61
2016-02-16T12:47:10.520Z,61
2016-02-16T12:48:09.320Z,61
2016-02-16T12:49:08.214Z,61
2016-02-16T12:50:06.872Z,61
2016-02-16T12:51:05.876Z,61
2016-02-16T12:52:06.722Z,61
2016-02-16T12:53:05.662Z,61
2016-02-16T12:54:04.289Z,61
2016-02-16T12:55:03.198Z,61
2016-02-16T12:56:01.855Z,61
2016-02-16T12:57:00.654Z,61
2016-02-16T12:57:59.422Z,61
2016-02-16T12:58:58.285Z,61
2016-02-16T12:59:57.116Z,61
2016-02-16T13:00:55.946Z,61
2016-02-16T13:01:56.839Z,61
2016-02-16T13:02:55.749Z,61
2016-02-16T13:03:54.422Z,61
2016-02-16T13:04:53.333Z,61
2016-02-16T13:05:52.100Z,61
2016-02-16T13:06:50.775Z,61
2016-02-16T13:07:49.668Z,61
2016-02-16T13:08:48.343Z,61
2016-02-16T13:09:47.126Z,61
2016-02-16T13:10:45.973Z,61
2016-02-16T13:11:46.976Z,61
2016-02-16T13:12:45.759Z,61
2016-02-16T13:13:44.654Z,61
2016-02-16T13:14:43.327Z,61
2016-02-16T13:15:42.112Z,61
2016-02-16T13:16:41.036Z,61
2016-02-16T13:17:39.679Z,61
2016-02-16T13:18:38.588Z,61
2016-02-16T13:19:37.356Z,61
2016-02-16T13:20:36.093Z,61
2016-02-16T13:21:37.221Z,61
2016-02-16T13:22:35.896Z,61
2016-02-16T13:23:34.680Z,61
2016-02-16T13:24:33.589Z,61
2016-02-16T13:25:32.231Z,61
2016-02-16T13:27:29.816Z,60
2016-02-16T13:28:28.334Z,61
2016-02-16T13:29:27.243Z,61
2016-02-16T13:30:25.965Z,61
2016-02-16T13:31:27.092Z,61
2016-02-16T13:32:25.767Z,61
2016-02-16T13:33:24.550Z,61
2016-02-16T13:34:23.382Z,61
2016-02-16T13:35:22.134Z,61
2016-02-16T13:36:21.027Z,61
2016-02-16T13:37:19.678Z,61
2016-02-16T13:38:18.462Z,61
2016-02-16T13:39:17.216Z,60
2016-02-16T13:40:15.798Z,60
2016-02-16T13:41:16.785Z,60
2016-02-16T13:42:15.310Z,60
2016-02-16T13:43:13.822Z,60
2016-02-16T13:44:12.476Z,60
2016-02-16T13:45:10.896Z,60
2016-02-16T13:46:09.408Z,60
2016-02-16T13:47:07.938Z,60
2016-02-16T13:48:06.455Z,60
2016-02-16T13:49:04.986Z,60
2016-02-16T13:50:03.565Z,60
2016-02-16T13:51:04.582Z,60
2016-02-16T13:52:03.129Z,60
2016-02-16T13:53:01.647Z,60
2016-02-16T13:54:00.180Z,60
2016-02-16T13:54:58.729Z,60
2016-02-16T13:55:57.246Z,60
2016-02-16T13:56:55.763Z,60
2016-02-16T13:57:54.297Z,60
2016-02-16T13:58:52.940Z,60
2016-02-16T13:59:51.411Z,60
2016-02-16T14:00:52.413Z,60
2016-02-16T14:01:50.947Z,60
2016-02-16T14:02:49.481Z,60
2016-02-16T14:03:48.139Z,60
2016-02-16T14:04:46.549Z,60
2016-02-16T14:05:45.083Z,60
2016-02-16T14:06:43.601Z,60
2016-02-16T14:07:42.135Z,60
2016-02-16T14:08:40.669Z,60
2016-02-16T14:09:39.265Z,60
2016-02-16T14:10:42.016Z,60
2016-02-16T14:11:38.790Z,60
2016-02-16T14:12:37.323Z,60
2016-02-16T14:13:36.060Z,60
2016-02-16T14:14:34.374Z,60
2016-02-16T14:15:32.909Z,60
2016-02-16T14:16:31.552Z,60
2016-02-16T14:17:29.977Z,60